aviador You're here:

SKRG Decoded Metar

RIO NEGRO in COLOMBIA
Report Time2017-08-22 11:00:00
UTC Time2017-08-22 11:05:04
Flight Rules vfr VFR
WindVRB at 02 kt
Visibility9999 m
Phenomena:N/A
Clouds:Few 010 Hf
Scattered 080 Hf
Broken 200 Hf
Ceiling20,000 ft
Temp13°C (ISA +12)
Dew Point13°C (100% RH)
QNH1027 hPa
Density Alt8,169 ft
Elevation7,020 ft
Report Wrong Elevation
Raw Report
METAR SKRG 221100Z VRB02KT 9999 FEW010 SCT080 BKN200 13/13 A3032=

Extra information for SKRG:More info

Metar Taf Metar & Taf Last 4 Metars F.Rules Stats Wind Profile Meteogram Temp Stats Airport Information Weather charts Add Link Nearby VenuesMetar ALERT Operation Metar Decoded Social comments